sensor_id;sensor_type;location;lat;lon;timestamp;pressure;altitude;pressure_sealevel;temperature;humidity
64023;BME280;50264;52.088;5.296;2023-05-15T00:02:54;101511.0;;;13.18;88.95
64023;BME280;50264;52.088;5.296;2023-05-15T00:04:30;101515.0;;;13.16;88.24
64023;BME280;50264;52.088;5.296;2023-05-15T00:06:06;101513.0;;;13.05;87.08
64023;BME280;50264;52.088;5.296;2023-05-15T00:09:18;101511.0;;;12.97;87.74
64023;BME280;50264;52.088;5.296;2023-05-15T00:10:54;101510.0;;;13.05;87.43
64023;BME280;50264;52.088;5.296;2023-05-15T00:12:31;101508.0;;;13.16;87.85
64023;BME280;50264;52.088;5.296;2023-05-15T00:14:07;101507.0;;;13.06;88.06
64023;BME280;50264;52.088;5.296;2023-05-15T00:17:19;101502.0;;;12.99;89.06
64023;BME280;50264;52.088;5.296;2023-05-15T00:18:55;101499.0;;;12.98;88.65
64023;BME280;50264;52.088;5.296;2023-05-15T00:20:31;101498.0;;;13.11;88.87
64023;BME280;50264;52.088;5.296;2023-05-15T00:23:44;101499.0;;;13.09;88.38
64023;BME280;50264;52.088;5.296;2023-05-15T00:25:20;101499.0;;;12.99;88.24
64023;BME280;50264;52.088;5.296;2023-05-15T00:26:59;101501.0;;;12.99;88.13
64023;BME280;50264;52.088;5.296;2023-05-15T00:30:12;101494.0;;;12.93;87.49
64023;BME280;50264;52.088;5.296;2023-05-15T00:31:48;101493.0;;;12.91;87.42
64023;BME280;50264;52.088;5.296;2023-05-15T00:33:24;101497.0;;;12.9;87.71
64023;BME280;50264;52.088;5.296;2023-05-15T00:36:37;101494.0;;;12.86;88.18
64023;BME280;50264;52.088;5.296;2023-05-15T00:38:13;101495.0;;;12.74;87.5
64023;BME280;50264;52.088;5.296;2023-05-15T00:39:49;101487.0;;;12.79;88.03
64023;BME280;50264;52.088;5.296;2023-05-15T00:41:26;101487.0;;;12.78;88.06
64023;BME280;50264;52.088;5.296;2023-05-15T00:44:43;101485.0;;;12.62;88.2
64023;BME280;50264;52.088;5.296;2023-05-15T00:46:20;101487.0;;;12.57;88.69
64023;BME280;50264;52.088;5.296;2023-05-15T00:47:59;101487.0;;;12.55;88.66
64023;BME280;50264;52.088;5.296;2023-05-15T00:51:13;101484.0;;;12.49;88.7
64023;BME280;50264;52.088;5.296;2023-05-15T00:52:49;101480.0;;;12.52;88.96
64023;BME280;50264;52.088;5.296;2023-05-15T00:54:25;101476.0;;;12.46;89.19
64023;BME280;50264;52.088;5.296;2023-05-15T00:56:02;101472.0;;;12.38;88.89
64023;BME280;50264;52.088;5.296;2023-05-15T00:59:19;101468.0;;;12.32;88.61
64023;BME280;50264;52.088;5.296;2023-05-15T01:00:57;101468.0;;;12.26;88.91
64023;BME280;50264;52.088;5.296;2023-05-15T01:02:33;101475.0;;;12.25;89.03
64023;BME280;50264;52.088;5.296;2023-05-15T01:05:45;101468.0;;;12.3;89.02
64023;BME280;50264;52.088;5.296;2023-05-15T01:07:21;101470.0;;;12.25;88.58
64023;BME280;50264;52.088;5.296;2023-05-15T01:08:59;101477.0;;;12.18;89.08
64023;BME280;50264;52.088;5.296;2023-05-15T01:10:36;101470.0;;;12.2;88.75
64023;BME280;50264;52.088;5.296;2023-05-15T01:13:50;101469.0;;;12.3;87.19
64023;BME280;50264;52.088;5.296;2023-05-15T01:15:26;101477.0;;;12.1;88.06
64023;BME280;50264;52.088;5.296;2023-05-15T01:17:02;101469.0;;;12.03;88.6
64023;BME280;50264;52.088;5.296;2023-05-15T01:20:17;101463.0;;;12.05;88.47
64023;BME280;50264;52.088;5.296;2023-05-15T01:22:14;101462.0;;;12.15;87.56
64023;BME280;50264;52.088;5.296;2023-05-15T01:25:37;101464.0;;;11.94;87.87
64023;BME280;50264;52.088;5.296;2023-05-15T01:28:27;101463.0;;;11.9;88.25
64023;BME280;50264;52.088;5.296;2023-05-15T01:30:11;101455.0;;;12.12;86.82
64023;BME280;50264;52.088;5.296;2023-05-15T01:31:54;101458.0;;;12.01;86.69
64023;BME280;50264;52.088;5.296;2023-05-15T01:35:20;101461.0;;;11.8;87.31
64023;BME280;50264;52.088;5.296;2023-05-15T01:37:02;101458.0;;;11.73;88.07
64023;BME280;50264;52.088;5.296;2023-05-15T01:38:45;101455.0;;;11.86;87.28
64023;BME280;50264;52.088;5.296;2023-05-15T01:40:24;101452.0;;;11.63;87.36
64023;BME280;50264;52.088;5.296;2023-05-15T01:42:05;101455.0;;;11.51;87.15
64023;BME280;50264;52.088;5.296;2023-05-15T01:45:24;101459.0;;;11.5;87.37
64023;BME280;50264;52.088;5.296;2023-05-15T01:47:06;101462.0;;;11.43;88.21
64023;BME280;50264;52.088;5.296;2023-05-15T01:48:45;101461.0;;;11.45;88.32
64023;BME280;50264;52.088;5.296;2023-05-15T01:50:23;101457.0;;;11.47;87.75
64023;BME280;50264;52.088;5.296;2023-05-15T01:53:45;101455.0;;;11.34;87.9
64023;BME280;50264;52.088;5.296;2023-05-15T01:55:24;101452.0;;;11.21;88.58
64023;BME280;50264;52.088;5.296;2023-05-15T01:57:01;101456.0;;;11.21;88.82
64023;BME280;50264;52.088;5.296;2023-05-15T02:01:54;101459.0;;;11.33;89.46
64023;BME280;50264;52.088;5.296;2023-05-15T02:03:32;101466.0;;;11.45;90.67
64023;BME280;50264;52.088;5.296;2023-05-15T02:05:10;101466.0;;;11.61;91.12
64023;BME280;50264;52.088;5.296;2023-05-15T02:08:25;101464.0;;;11.74;90.52
64023;BME280;50264;52.088;5.296;2023-05-15T02:10:03;101465.0;;;11.79;89.7
64023;BME280;50264;52.088;5.296;2023-05-15T02:11:41;101462.0;;;11.93;90.46
64023;BME280;50264;52.088;5.296;2023-05-15T02:14:54;101471.0;;;12.07;91.59
64023;BME280;50264;52.088;5.296;2023-05-15T02:16:33;101476.0;;;12.01;89.87
64023;BME280;50264;52.088;5.296;2023-05-15T02:18:09;101471.0;;;12.19;91.61
64023;BME280;50264;52.088;5.296;2023-05-15T02:19:45;101469.0;;;12.27;91.8
64023;BME280;50264;52.088;5.296;2023-05-15T02:22:57;101470.0;;;12.41;91.73
64023;BME280;50264;52.088;5.296;2023-05-15T02:24:33;101471.0;;;12.53;91.16
64023;BME280;50264;52.088;5.296;2023-05-15T02:26:19;101464.0;;;12.64;90.99
64023;BME280;50264;52.088;5.296;2023-05-15T02:28:15;101459.0;;;12.71;90.62
64023;BME280;50264;52.088;5.296;2023-05-15T02:31:58;101464.0;;;12.61;89.16
64023;BME280;50264;52.088;5.296;2023-05-15T02:33:44;101458.0;;;12.52;90.22
64023;BME280;50264;52.088;5.296;2023-05-15T02:35:31;101461.0;;;12.5;90.97
64023;BME280;50264;52.088;5.296;2023-05-15T02:37:13;101462.0;;;12.48;90.69
64023;BME280;50264;52.088;5.296;2023-05-15T02:38:57;101461.0;;;12.39;90.79
64023;BME280;50264;52.088;5.296;2023-05-15T02:40:35;101461.0;;;12.49;91.13
64023;BME280;50264;52.088;5.296;2023-05-15T02:43:50;101459.0;;;12.57;90.36
64023;BME280;50264;52.088;5.296;2023-05-15T02:45:28;101463.0;;;12.48;90.15
64023;BME280;50264;52.088;5.296;2023-05-15T02:47:05;101457.0;;;12.41;90.43
64023;BME280;50264;52.088;5.296;2023-05-15T02:50:19;101457.0;;;12.41;89.97
64023;BME280;50264;52.088;5.296;2023-05-15T02:51:56;101455.0;;;12.32;89.94
64023;BME280;50264;52.088;5.296;2023-05-15T02:53:32;101453.0;;;12.32;90.05
64023;BME280;50264;52.088;5.296;2023-05-15T02:55:13;101451.0;;;12.23;90.21
64023;BME280;50264;52.088;5.296;2023-05-15T02:58:25;101455.0;;;12.15;90.07
64023;BME280;50264;52.088;5.296;2023-05-15T03:00:03;101449.0;;;12.12;90.63
64023;BME280;50264;52.088;5.296;2023-05-15T03:01:39;101450.0;;;12.01;89.36
64023;BME280;50264;52.088;5.296;2023-05-15T03:04:52;101448.0;;;11.99;90.13
64023;BME280;50264;52.088;5.296;2023-05-15T03:06:28;101449.0;;;11.97;90.04
64023;BME280;50264;52.088;5.296;2023-05-15T03:08:04;101450.0;;;11.84;90.19
64023;BME280;50264;52.088;5.296;2023-05-15T03:11:16;101449.0;;;11.81;90.82
64023;BME280;50264;52.088;5.296;2023-05-15T03:12:54;101455.0;;;11.8;91.3
64023;BME280;50264;52.088;5.296;2023-05-15T03:14:31;101447.0;;;11.94;91.34
64023;BME280;50264;52.088;5.296;2023-05-15T03:16:07;101450.0;;;12.05;90.59
64023;BME280;50264;52.088;5.296;2023-05-15T03:19:19;101446.0;;;11.92;89.42
64023;BME280;50264;52.088;5.296;2023-05-15T03:20:55;101446.0;;;11.93;89.21
64023;BME280;50264;52.088;5.296;2023-05-15T03:22:31;101444.0;;;11.99;89.62
64023;BME280;50264;52.088;5.296;2023-05-15T03:25:44;101446.0;;;11.93;89.3
64023;BME280;50264;52.088;5.296;2023-05-15T03:27:20;101440.0;;;11.88;89.63
64023;BME280;50264;52.088;5.296;2023-05-15T03:28:56;101443.0;;;11.8;90.18
64023;BME280;50264;52.088;5.296;2023-05-15T03:32:09;101446.0;;;11.81;90.57
64023;BME280;50264;52.088;5.296;2023-05-15T03:33:45;101437.0;;;11.74;90.93
64023;BME280;50264;52.088;5.296;2023-05-15T03:35:21;101436.0;;;11.74;91.51
64023;BME280;50264;52.088;5.296;2023-05-15T03:38:33;101436.0;;;11.87;92.28
64023;BME280;50264;52.088;5.296;2023-05-15T03:40:11;101422.0;;;11.97;91.97
64023;BME280;50264;52.088;5.296;2023-05-15T03:41:47;101426.0;;;11.96;92.23
64023;BME280;50264;52.088;5.296;2023-05-15T03:43:23;101425.0;;;11.93;92.59
64023;BME280;50264;52.088;5.296;2023-05-15T03:46:35;101423.0;;;12.0;92.58
64023;BME280;50264;52.088;5.296;2023-05-15T03:48:11;101425.0;;;11.93;92.62
64023;BME280;50264;52.088;5.296;2023-05-15T03:49:47;101428.0;;;11.98;92.17
64023;BME280;50264;52.088;5.296;2023-05-15T03:53:00;101435.0;;;11.97;92.47
64023;BME280;50264;52.088;5.296;2023-05-15T03:54:36;101433.0;;;12.06;92.4
64023;BME280;50264;52.088;5.296;2023-05-15T03:56:12;101437.0;;;12.1;92.25
64023;BME280;50264;52.088;5.296;2023-05-15T03:59:24;101445.0;;;12.08;92.43
64023;BME280;50264;52.088;5.296;2023-05-15T04:01:00;101441.0;;;12.18;92.04
64023;BME280;50264;52.088;5.296;2023-05-15T04:02:37;101439.0;;;12.09;92.38
64023;BME280;50264;52.088;5.296;2023-05-15T04:05:49;101446.0;;;12.14;92.76
64023;BME280;50264;52.088;5.296;2023-05-15T04:07:25;101448.0;;;12.09;92.18
64023;BME280;50264;52.088;5.296;2023-05-15T04:09:01;101452.0;;;12.24;91.76
64023;BME280;50264;52.088;5.296;2023-05-15T04:10:37;101456.0;;;12.11;91.89
64023;BME280;50264;52.088;5.296;2023-05-15T04:13:50;101453.0;;;12.13;91.75
64023;BME280;50264;52.088;5.296;2023-05-15T04:15:26;101447.0;;;12.11;91.99
64023;BME280;50264;52.088;5.296;2023-05-15T04:17:02;101452.0;;;12.27;91.32
64023;BME280;50264;52.088;5.296;2023-05-15T04:20:16;101455.0;;;12.0;90.65
64023;BME280;50264;52.088;5.296;2023-05-15T04:21:53;101458.0;;;12.05;90.29
64023;BME280;50264;52.088;5.296;2023-05-15T04:23:29;101458.0;;;12.07;90.34
64023;BME280;50264;52.088;5.296;2023-05-15T04:26:43;101450.0;;;12.2;90.38
64023;BME280;50264;52.088;5.296;2023-05-15T04:29:55;101457.0;;;11.91;90.17
64023;BME280;50264;52.088;5.296;2023-05-15T04:31:31;101455.0;;;12.03;89.93
64023;BME280;50264;52.088;5.296;2023-05-15T04:40:15;101461.0;;;11.98;91.24
64023;BME280;50264;52.088;5.296;2023-05-15T04:43:27;101472.0;;;11.96;91.52
64023;BME280;50264;52.088;5.296;2023-05-15T04:45:04;101476.0;;;12.12;91.22
64023;BME280;50264;52.088;5.296;2023-05-15T04:46:41;101471.0;;;12.13;91.2
64023;BME280;50264;52.088;5.296;2023-05-15T04:48:17;101474.0;;;12.13;91.03
64023;BME280;50264;52.088;5.296;2023-05-15T04:51:29;101466.0;;;12.2;90.39
64023;BME280;50264;52.088;5.296;2023-05-15T04:53:05;101469.0;;;12.18;90.49
64023;BME280;50264;52.088;5.296;2023-05-15T04:54:42;101462.0;;;12.2;89.2
64023;BME280;50264;52.088;5.296;2023-05-15T04:57:54;101460.0;;;12.2;89.35
64023;BME280;50264;52.088;5.296;2023-05-15T04:59:30;101456.0;;;12.19;89.84
64023;BME280;50264;52.088;5.296;2023-05-15T05:01:06;101460.0;;;12.18;89.76
64023;BME280;50264;52.088;5.296;2023-05-15T05:04:18;101458.0;;;12.11;89.91
64023;BME280;50264;52.088;5.296;2023-05-15T05:05:55;101456.0;;;12.23;89.62
64023;BME280;50264;52.088;5.296;2023-05-15T05:07:31;101455.0;;;12.19;89.33
64023;BME280;50264;52.088;5.296;2023-05-15T05:09:07;101453.0;;;12.25;89.05
64023;BME280;50264;52.088;5.296;2023-05-15T05:12:19;101455.0;;;12.24;89.52
64023;BME280;50264;52.088;5.296;2023-05-15T05:13:55;101457.0;;;12.35;89.82
64023;BME280;50264;52.088;5.296;2023-05-15T05:15:31;101459.0;;;12.41;89.14
64023;BME280;50264;52.088;5.296;2023-05-15T05:18:45;101458.0;;;12.45;88.52
64023;BME280;50264;52.088;5.296;2023-05-15T05:20:21;101461.0;;;12.38;89.24
64023;BME280;50264;52.088;5.296;2023-05-15T05:21:57;101465.0;;;12.46;88.7
64023;BME280;50264;52.088;5.296;2023-05-15T05:25:09;101466.0;;;12.53;89.09
64023;BME280;50264;52.088;5.296;2023-05-15T05:26:46;101465.0;;;12.52;88.32
64023;BME280;50264;52.088;5.296;2023-05-15T05:28:23;101467.0;;;12.44;87.74
64023;BME280;50264;52.088;5.296;2023-05-15T05:31:35;101467.0;;;12.5;88.21
64023;BME280;50264;52.088;5.296;2023-05-15T05:33:11;101470.0;;;12.54;87.45
64023;BME280;50264;52.088;5.296;2023-05-15T05:34:47;101469.0;;;12.49;87.55
64023;BME280;50264;52.088;5.296;2023-05-15T05:36:23;101467.0;;;12.54;87.94
64023;BME280;50264;52.088;5.296;2023-05-15T05:39:36;101467.0;;;12.61;87.71
64023;BME280;50264;52.088;5.296;2023-05-15T05:41:11;101465.0;;;12.73;87.63
64023;BME280;50264;52.088;5.296;2023-05-15T05:42:47;101460.0;;;12.8;87.06
64023;BME280;50264;52.088;5.296;2023-05-15T05:46:00;101462.0;;;12.7;86.73
64023;BME280;50264;52.088;5.296;2023-05-15T05:47:36;101463.0;;;12.86;87.08
64023;BME280;50264;52.088;5.296;2023-05-15T05:49:12;101458.0;;;12.83;86.3
64023;BME280;50264;52.088;5.296;2023-05-15T05:52:25;101459.0;;;12.98;85.83
64023;BME280;50264;52.088;5.296;2023-05-15T05:54:01;101462.0;;;12.93;85.55
64023;BME280;50264;52.088;5.296;2023-05-15T05:55:37;101456.0;;;12.96;87.31
64023;BME280;50264;52.088;5.296;2023-05-15T05:57:13;101463.0;;;12.93;86.52
64023;BME280;50264;52.088;5.296;2023-05-15T06:00:26;101460.0;;;13.05;85.16
64023;BME280;50264;52.088;5.296;2023-05-15T06:02:02;101458.0;;;13.09;85.14
64023;BME280;50264;52.088;5.296;2023-05-15T06:03:41;101461.0;;;13.11;84.58
64023;BME280;50264;52.088;5.296;2023-05-15T06:06:52;101456.0;;;13.14;82.86
64023;BME280;50264;52.088;5.296;2023-05-15T06:08:28;101460.0;;;13.31;83.98
64023;BME280;50264;52.088;5.296;2023-05-15T06:10:05;101455.0;;;13.35;81.75
64023;BME280;50264;52.088;5.296;2023-05-15T06:13:17;101451.0;;;13.32;81.69
64023;BME280;50264;52.088;5.296;2023-05-15T06:14:53;101449.0;;;13.38;82.41
64023;BME280;50264;52.088;5.296;2023-05-15T06:16:29;101453.0;;;13.4;81.94
64023;BME280;50264;52.088;5.296;2023-05-15T06:19:41;101446.0;;;13.31;81.5
64023;BME280;50264;52.088;5.296;2023-05-15T06:21:17;101449.0;;;13.46;80.92
64023;BME280;50264;52.088;5.296;2023-05-15T06:22:53;101446.0;;;13.44;80.62
64023;BME280;50264;52.088;5.296;2023-05-15T06:24:29;101445.0;;;13.36;79.83
64023;BME280;50264;52.088;5.296;2023-05-15T06:27:42;101443.0;;;13.3;81.02
64023;BME280;50264;52.088;5.296;2023-05-15T06:29:18;101444.0;;;13.42;80.7
64023;BME280;50264;52.088;5.296;2023-05-15T06:30:54;101441.0;;;13.38;80.33
64023;BME280;50264;52.088;5.296;2023-05-15T06:34:06;101437.0;;;13.25;79.98
64023;BME280;50264;52.088;5.296;2023-05-15T06:35:42;101434.0;;;13.45;80.06
64023;BME280;50264;52.088;5.296;2023-05-15T06:37:19;101442.0;;;13.44;80.58
64023;BME280;50264;52.088;5.296;2023-05-15T06:40:31;101439.0;;;13.57;82.66
64023;BME280;50264;52.088;5.296;2023-05-15T06:42:07;101436.0;;;13.65;80.95
64023;BME280;50264;52.088;5.296;2023-05-15T06:45:19;101435.0;;;13.85;80.91
64023;BME280;50264;52.088;5.296;2023-05-15T06:48:33;101435.0;;;13.85;81.55
64023;BME280;50264;52.088;5.296;2023-05-15T06:50:09;101438.0;;;14.03;82.03
64023;BME280;50264;52.088;5.296;2023-05-15T06:51:45;101444.0;;;14.08;80.37
64023;BME280;50264;52.088;5.296;2023-05-15T06:54:58;101443.0;;;14.22;79.99
64023;BME280;50264;52.088;5.296;2023-05-15T06:56:34;101446.0;;;14.19;78.55
64023;BME280;50264;52.088;5.296;2023-05-15T06:58:10;101450.0;;;14.31;79.62
64023;BME280;50264;52.088;5.296;2023-05-15T07:01:23;101449.0;;;14.37;78.69
64023;BME280;50264;52.088;5.296;2023-05-15T07:02:59;101451.0;;;14.49;79.36
64023;BME280;50264;52.088;5.296;2023-05-15T07:04:34;101447.0;;;14.57;77.64
64023;BME280;50264;52.088;5.296;2023-05-15T07:07:47;101446.0;;;14.63;78.19
64023;BME280;50264;52.088;5.296;2023-05-15T07:09:23;101447.0;;;14.63;77.66
64023;BME280;50264;52.088;5.296;2023-05-15T07:11:00;101447.0;;;14.73;78.27
64023;BME280;50264;52.088;5.296;2023-05-15T07:12:36;101449.0;;;14.8;77.41
64023;BME280;50264;52.088;5.296;2023-05-15T07:15:48;101443.0;;;14.63;75.33
64023;BME280;50264;52.088;5.296;2023-05-15T07:17:25;101447.0;;;14.75;77.3
64023;BME280;50264;52.088;5.296;2023-05-15T07:19:01;101449.0;;;14.82;76.97
64023;BME280;50264;52.088;5.296;2023-05-15T07:22:14;101444.0;;;14.92;75.86
64023;BME280;50264;52.088;5.296;2023-05-15T07:23:51;101446.0;;;15.03;75.62
64023;BME280;50264;52.088;5.296;2023-05-15T07:25:28;101448.0;;;15.08;75.05
64023;BME280;50264;52.088;5.296;2023-05-15T07:28:40;101451.0;;;15.11;74.41
64023;BME280;50264;52.088;5.296;2023-05-15T07:30:17;101448.0;;;15.13;74.48
64023;BME280;50264;52.088;5.296;2023-05-15T07:31:54;101447.0;;;15.18;73.56
64023;BME280;50264;52.088;5.296;2023-05-15T07:33:30;101448.0;;;15.3;72.48
64023;BME280;50264;52.088;5.296;2023-05-15T07:36:42;101447.0;;;15.23;72.39
64023;BME280;50264;52.088;5.296;2023-05-15T07:38:18;101448.0;;;15.35;73.41
64023;BME280;50264;52.088;5.296;2023-05-15T07:39:54;101447.0;;;15.29;72.97
64023;BME280;50264;52.088;5.296;2023-05-15T07:43:07;101444.0;;;15.19;72.83
64023;BME280;50264;52.088;5.296;2023-05-15T07:44:44;101444.0;;;15.25;72.67
64023;BME280;50264;52.088;5.296;2023-05-15T07:46:20;101444.0;;;15.29;72.66
64023;BME280;50264;52.088;5.296;2023-05-15T07:49:32;101447.0;;;15.39;73.33
64023;BME280;50264;52.088;5.296;2023-05-15T07:51:08;101450.0;;;15.4;71.91
64023;BME280;50264;52.088;5.296;2023-05-15T07:52:44;101448.0;;;15.46;72.53
64023;BME280;50264;52.088;5.296;2023-05-15T07:54:21;101452.0;;;15.34;69.99
64023;BME280;50264;52.088;5.296;2023-05-15T07:57:33;101446.0;;;15.5;70.31
64023;BME280;50264;52.088;5.296;2023-05-15T07:59:09;101447.0;;;15.63;67.92
64023;BME280;50264;52.088;5.296;2023-05-15T08:00:45;101441.0;;;15.9;69.55
64023;BME280;50264;52.088;5.296;2023-05-15T08:03:57;101444.0;;;15.83;67.12
64023;BME280;50264;52.088;5.296;2023-05-15T08:05:34;101440.0;;;15.95;67.92
64023;BME280;50264;52.088;5.296;2023-05-15T08:07:10;101447.0;;;15.71;67.36
64023;BME280;50264;52.088;5.296;2023-05-15T08:10:24;101447.0;;;15.9;68.58
64023;BME280;50264;52.088;5.296;2023-05-15T08:12:13;101445.0;;;16.02;70.3
64023;BME280;50264;52.088;5.296;2023-05-15T08:13:53;101442.0;;;16.02;68.8
64023;BME280;50264;52.088;5.296;2023-05-15T08:15:29;101445.0;;;16.21;68.62
64023;BME280;50264;52.088;5.296;2023-05-15T08:18:42;101441.0;;;16.12;69.27
64023;BME280;50264;52.088;5.296;2023-05-15T08:20:18;101451.0;;;16.34;67.3
64023;BME280;50264;52.088;5.296;2023-05-15T08:21:54;101452.0;;;16.22;67.77
64023;BME280;50264;52.088;5.296;2023-05-15T08:25:07;101450.0;;;16.28;67.11
64023;BME280;50264;52.088;5.296;2023-05-15T08:26:44;101448.0;;;16.32;68.24
64023;BME280;50264;52.088;5.296;2023-05-15T08:28:20;101448.0;;;16.43;68.77
64023;BME280;50264;52.088;5.296;2023-05-15T08:29:56;101444.0;;;16.66;67.78
64023;BME280;50264;52.088;5.296;2023-05-15T08:33:08;101442.0;;;16.59;67.06
64023;BME280;50264;52.088;5.296;2023-05-15T08:34:44;101445.0;;;16.5;66.08
64023;BME280;50264;52.088;5.296;2023-05-15T08:36:21;101445.0;;;16.57;66.36
64023;BME280;50264;52.088;5.296;2023-05-15T08:39:33;101445.0;;;16.68;67.16
64023;BME280;50264;52.088;5.296;2023-05-15T08:41:16;101447.0;;;16.52;67.85
64023;BME280;50264;52.088;5.296;2023-05-15T08:43:00;101440.0;;;16.64;66.24
64023;BME280;50264;52.088;5.296;2023-05-15T08:44:37;101439.0;;;16.66;67.55
64023;BME280;50264;52.088;5.296;2023-05-15T08:47:52;101437.0;;;16.78;66.22
64023;BME280;50264;52.088;5.296;2023-05-15T08:49:38;101440.0;;;16.88;67.59
64023;BME280;50264;52.088;5.296;2023-05-15T08:51:18;101441.0;;;16.96;65.83
64023;BME280;50264;52.088;5.296;2023-05-15T08:54:32;101437.0;;;17.05;66.5
64023;BME280;50264;52.088;5.296;2023-05-15T08:56:09;101433.0;;;16.98;66.58
64023;BME280;50264;52.088;5.296;2023-05-15T08:57:46;101433.0;;;16.93;66.05
64023;BME280;50264;52.088;5.296;2023-05-15T08:59:23;101437.0;;;16.95;67.88
64023;BME280;50264;52.088;5.296;2023-05-15T09:02:35;101441.0;;;17.03;67.08
64023;BME280;50264;52.088;5.296;2023-05-15T09:04:12;101446.0;;;17.06;68.2
64023;BME280;50264;52.088;5.296;2023-05-15T09:05:50;101452.0;;;16.95;68.36
64023;BME280;50264;52.088;5.296;2023-05-15T09:09:05;101450.0;;;16.87;69.05
64023;BME280;50264;52.088;5.296;2023-05-15T09:10:44;101456.0;;;16.98;69.23
64023;BME280;50264;52.088;5.296;2023-05-15T09:12:23;101457.0;;;16.89;68.99
64023;BME280;50264;52.088;5.296;2023-05-15T09:13:59;101456.0;;;16.97;69.83
64023;BME280;50264;52.088;5.296;2023-05-15T09:17:13;101462.0;;;16.97;69.31
64023;BME280;50264;52.088;5.296;2023-05-15T09:18:49;101456.0;;;17.0;67.8
64023;BME280;50264;52.088;5.296;2023-05-15T09:20:28;101459.0;;;16.98;68.48
64023;BME280;50264;52.088;5.296;2023-05-15T09:25:33;101449.0;;;17.03;68.59
64023;BME280;50264;52.088;5.296;2023-05-15T09:27:11;101453.0;;;17.16;68.5
64023;BME280;50264;52.088;5.296;2023-05-15T09:28:47;101455.0;;;17.2;68.8
64023;BME280;50264;52.088;5.296;2023-05-15T09:32:02;101457.0;;;17.2;68.5
64023;BME280;50264;52.088;5.296;2023-05-15T09:33:40;101455.0;;;17.09;69.12
64023;BME280;50264;52.088;5.296;2023-05-15T09:35:32;101456.0;;;17.11;69.49
64023;BME280;50264;52.088;5.296;2023-05-15T09:37:11;101460.0;;;17.11;69.44
64023;BME280;50264;52.088;5.296;2023-05-15T09:39:03;101459.0;;;17.07;69.0
64023;BME280;50264;52.088;5.296;2023-05-15T09:42:15;101458.0;;;17.05;69.59
64023;BME280;50264;52.088;5.296;2023-05-15T09:43:52;101453.0;;;17.09;70.56
64023;BME280;50264;52.088;5.296;2023-05-15T09:45:29;101461.0;;;17.0;68.91
64023;BME280;50264;52.088;5.296;2023-05-15T09:48:43;101466.0;;;16.96;70.22
64023;BME280;50264;52.088;5.296;2023-05-15T09:50:20;101457.0;;;16.93;69.61
64023;BME280;50264;52.088;5.296;2023-05-15T09:51:57;101467.0;;;16.88;70.64
64023;BME280;50264;52.088;5.296;2023-05-15T09:55:13;101469.0;;;16.8;70.17
64023;BME280;50264;52.088;5.296;2023-05-15T09:56:50;101470.0;;;16.56;71.25
64023;BME280;50264;52.088;5.296;2023-05-15T09:58:26;101470.0;;;16.64;71.83
64023;BME280;50264;52.088;5.296;2023-05-15T10:00:03;101467.0;;;16.54;72.83
64023;BME280;50264;52.088;5.296;2023-05-15T10:03:20;101468.0;;;16.43;73.62
64023;BME280;50264;52.088;5.296;2023-05-15T10:04:58;101471.0;;;16.4;72.66
64023;BME280;50264;52.088;5.296;2023-05-15T10:06:35;101467.0;;;16.27;73.2
64023;BME280;50264;52.088;5.296;2023-05-15T10:09:47;101475.0;;;16.41;72.61
64023;BME280;50264;52.088;5.296;2023-05-15T10:11:24;101473.0;;;16.32;72.16
64023;BME280;50264;52.088;5.296;2023-05-15T10:13:01;101477.0;;;16.25;73.98
64023;BME280;50264;52.088;5.296;2023-05-15T10:14:37;101472.0;;;16.2;74.05
64023;BME280;50264;52.088;5.296;2023-05-15T10:17:51;101477.0;;;16.2;73.67
64023;BME280;50264;52.088;5.296;2023-05-15T10:19:28;101476.0;;;16.18;74.28
64023;BME280;50264;52.088;5.296;2023-05-15T10:21:05;101474.0;;;16.21;74.45
64023;BME280;50264;52.088;5.296;2023-05-15T10:24:24;101477.0;;;16.02;75.08
64023;BME280;50264;52.088;5.296;2023-05-15T10:26:10;101478.0;;;16.02;75.83
64023;BME280;50264;52.088;5.296;2023-05-15T10:27:50;101480.0;;;16.04;75.05
64023;BME280;50264;52.088;5.296;2023-05-15T10:29:27;101480.0;;;16.06;74.69
64023;BME280;50264;52.088;5.296;2023-05-15T10:32:43;101480.0;;;15.89;76.16
64023;BME280;50264;52.088;5.296;2023-05-15T10:34:19;101476.0;;;15.99;76.49
64023;BME280;50264;52.088;5.296;2023-05-15T10:35:55;101478.0;;;15.9;77.33
64023;BME280;50264;52.088;5.296;2023-05-15T10:37:34;101483.0;;;15.87;76.97
64023;BME280;50264;52.088;5.296;2023-05-15T10:40:48;101480.0;;;15.88;77.25
64023;BME280;50264;52.088;5.296;2023-05-15T10:42:28;101482.0;;;15.92;76.25
64023;BME280;50264;52.088;5.296;2023-05-15T10:44:05;101481.0;;;16.03;75.78
64023;BME280;50264;52.088;5.296;2023-05-15T10:47:19;101482.0;;;15.89;76.11
64023;BME280;50264;52.088;5.296;2023-05-15T10:48:56;101478.0;;;15.84;77.06
64023;BME280;50264;52.088;5.296;2023-05-15T10:50:35;101476.0;;;15.87;76.48
64023;BME280;50264;52.088;5.296;2023-05-15T10:52:12;101473.0;;;15.87;76.03
64023;BME280;50264;52.088;5.296;2023-05-15T10:55:25;101474.0;;;15.88;77.3
64023;BME280;50264;52.088;5.296;2023-05-15T10:57:01;101472.0;;;15.88;77.16
64023;BME280;50264;52.088;5.296;2023-05-15T10:58:37;101468.0;;;15.81;77.55
64023;BME280;50264;52.088;5.296;2023-05-15T11:02:21;101465.0;;;15.87;78.06
64023;BME280;50264;52.088;5.296;2023-05-15T11:04:04;101461.0;;;15.92;78.7
64023;BME280;50264;52.088;5.296;2023-05-15T11:06:27;101468.0;;;16.09;75.69
64023;BME280;50264;52.088;5.296;2023-05-15T11:08:36;101468.0;;;15.91;76.24
64023;BME280;50264;52.088;5.296;2023-05-15T11:10:35;101467.0;;;15.88;76.02
64023;BME280;50264;52.088;5.296;2023-05-15T11:12:23;101472.0;;;15.95;76.16
64023;BME280;50264;52.088;5.296;2023-05-15T11:14:14;101471.0;;;15.94;77.08
64023;BME280;50264;52.088;5.296;2023-05-15T11:15:50;101472.0;;;15.89;76.22
64023;BME280;50264;52.088;5.296;2023-05-15T11:17:30;101474.0;;;15.96;77.53
64023;BME280;50264;52.088;5.296;2023-05-15T11:21:12;101474.0;;;15.9;77.3
64023;BME280;50264;52.088;5.296;2023-05-15T11:22:56;101476.0;;;15.99;77.11
64023;BME280;50264;52.088;5.296;2023-05-15T11:24:46;101476.0;;;16.09;76.0